sensor_id;sensor_type;location;lat;lon;timestamp;P1;durP1;ratioP1;P2;durP2;ratioP2
11767;SDS011;5941;57.652;12.514;2023-07-13T00:01:27;936.27;;;874.17;;
11767;SDS011;5941;57.652;12.514;2023-07-13T00:03:53;938.97;;;876.10;;
11767;SDS011;5941;57.652;12.514;2023-07-13T00:06:19;935.38;;;871.38;;
11767;SDS011;5941;57.652;12.514;2023-07-13T00:08:46;947.63;;;881.45;;
11767;SDS011;5941;57.652;12.514;2023-07-13T00:11:16;970.08;;;900.72;;
11767;SDS011;5941;57.652;12.514;2023-07-13T00:13:42;953.60;;;887.15;;
11767;SDS011;5941;57.652;12.514;2023-07-13T00:16:09;1310.57;;;929.10;;
11767;SDS011;5941;57.652;12.514;2023-07-13T00:18:36;945.22;;;879.70;;
11767;SDS011;5941;57.652;12.514;2023-07-13T00:21:02;957.03;;;890.00;;
11767;SDS011;5941;57.652;12.514;2023-07-13T00:23:32;936.45;;;872.33;;
11767;SDS011;5941;57.652;12.514;2023-07-13T00:25:59;937.47;;;874.28;;
11767;SDS011;5941;57.652;12.514;2023-07-13T00:28:25;933.47;;;869.83;;
11767;SDS011;5941;57.652;12.514;2023-07-13T00:30:51;941.93;;;877.37;;
11767;SDS011;5941;57.652;12.514;2023-07-13T00:33:17;956.30;;;889.13;;
11767;SDS011;5941;57.652;12.514;2023-07-13T00:35:43;953.73;;;886.23;;
11767;SDS011;5941;57.652;12.514;2023-07-13T00:38:09;955.63;;;888.60;;
11767;SDS011;5941;57.652;12.514;2023-07-13T00:40:35;967.50;;;899.13;;
11767;SDS011;5941;57.652;12.514;2023-07-13T00:43:02;946.40;;;881.73;;
11767;SDS011;5941;57.652;12.514;2023-07-13T00:47:55;964.37;;;895.10;;
11767;SDS011;5941;57.652;12.514;2023-07-13T00:50:22;953.20;;;887.70;;
11767;SDS011;5941;57.652;12.514;2023-07-13T00:52:50;953.40;;;886.80;;
11767;SDS011;5941;57.652;12.514;2023-07-13T00:55:18;952.93;;;887.53;;
11767;SDS011;5941;57.652;12.514;2023-07-13T00:57:44;944.90;;;881.63;;
11767;SDS011;5941;57.652;12.514;2023-07-13T01:00:10;941.47;;;878.53;;
11767;SDS011;5941;57.652;12.514;2023-07-13T01:02:42;945.70;;;880.47;;
11767;SDS011;5941;57.652;12.514;2023-07-13T01:05:11;959.93;;;892.87;;
11767;SDS011;5941;57.652;12.514;2023-07-13T01:07:38;953.73;;;886.80;;
11767;SDS011;5941;57.652;12.514;2023-07-13T01:10:05;968.10;;;898.97;;
11767;SDS011;5941;57.652;12.514;2023-07-13T01:12:31;974.07;;;903.10;;
11767;SDS011;5941;57.652;12.514;2023-07-13T01:14:57;987.90;;;914.10;;
11767;SDS011;5941;57.652;12.514;2023-07-13T01:17:25;1999.90;;;999.90;;
11767;SDS011;5941;57.652;12.514;2023-07-13T01:19:51;1309.47;;;929.50;;
11767;SDS011;5941;57.652;12.514;2023-07-13T01:22:18;1999.90;;;999.90;;
11767;SDS011;5941;57.652;12.514;2023-07-13T01:24:45;1999.90;;;999.90;;
11767;SDS011;5941;57.652;12.514;2023-07-13T01:27:13;1999.90;;;999.90;;
11767;SDS011;5941;57.652;12.514;2023-07-13T01:29:40;1999.90;;;999.90;;
11767;SDS011;5941;57.652;12.514;2023-07-13T01:32:10;1999.90;;;999.90;;
11767;SDS011;5941;57.652;12.514;2023-07-13T01:34:36;1999.90;;;999.90;;
11767;SDS011;5941;57.652;12.514;2023-07-13T01:37:02;1999.90;;;999.90;;
11767;SDS011;5941;57.652;12.514;2023-07-13T01:39:28;1999.90;;;999.90;;
11767;SDS011;5941;57.652;12.514;2023-07-13T01:41:54;1999.90;;;999.90;;
11767;SDS011;5941;57.652;12.514;2023-07-13T01:44:20;1999.90;;;999.90;;
11767;SDS011;5941;57.652;12.514;2023-07-13T01:46:46;1999.90;;;999.90;;
11767;SDS011;5941;57.652;12.514;2023-07-13T01:49:12;1999.90;;;999.90;;
11767;SDS011;5941;57.652;12.514;2023-07-13T01:51:38;1999.90;;;999.90;;
11767;SDS011;5941;57.652;12.514;2023-07-13T01:54:04;1999.90;;;999.90;;
11767;SDS011;5941;57.652;12.514;2023-07-13T01:56:30;1999.90;;;999.90;;
11767;SDS011;5941;57.652;12.514;2023-07-13T01:58:56;1999.90;;;999.90;;
11767;SDS011;5941;57.652;12.514;2023-07-13T02:01:22;1999.90;;;999.90;;
11767;SDS011;5941;57.652;12.514;2023-07-13T02:03:48;1999.90;;;999.90;;
11767;SDS011;5941;57.652;12.514;2023-07-13T02:06:14;1999.90;;;999.90;;
11767;SDS011;5941;57.652;12.514;2023-07-13T02:08:40;1999.90;;;999.90;;
11767;SDS011;5941;57.652;12.514;2023-07-13T02:11:07;1999.90;;;999.90;;
11767;SDS011;5941;57.652;12.514;2023-07-13T02:13:33;1999.90;;;999.90;;
11767;SDS011;5941;57.652;12.514;2023-07-13T02:15:59;1999.90;;;999.90;;
11767;SDS011;5941;57.652;12.514;2023-07-13T02:18:25;1999.90;;;999.90;;
11767;SDS011;5941;57.652;12.514;2023-07-13T02:20:51;1999.90;;;999.90;;
11767;SDS011;5941;57.652;12.514;2023-07-13T02:23:17;1999.90;;;999.90;;
11767;SDS011;5941;57.652;12.514;2023-07-13T02:25:43;1999.90;;;999.90;;
11767;SDS011;5941;57.652;12.514;2023-07-13T02:28:09;1999.90;;;999.90;;
11767;SDS011;5941;57.652;12.514;2023-07-13T02:30:35;1999.90;;;999.90;;
11767;SDS011;5941;57.652;12.514;2023-07-13T02:33:01;1999.90;;;999.90;;
11767;SDS011;5941;57.652;12.514;2023-07-13T02:35:27;1999.90;;;999.90;;
11767;SDS011;5941;57.652;12.514;2023-07-13T02:37:53;1999.90;;;999.90;;
11767;SDS011;5941;57.652;12.514;2023-07-13T02:40:19;1999.90;;;999.90;;
11767;SDS011;5941;57.652;12.514;2023-07-13T02:42:45;1999.90;;;999.90;;
11767;SDS011;5941;57.652;12.514;2023-07-13T02:45:11;1999.90;;;999.90;;
11767;SDS011;5941;57.652;12.514;2023-07-13T02:47:39;1999.90;;;999.90;;
11767;SDS011;5941;57.652;12.514;2023-07-13T02:50:05;1999.90;;;999.90;;
11767;SDS011;5941;57.652;12.514;2023-07-13T02:52:31;1999.90;;;999.90;;
11767;SDS011;5941;57.652;12.514;2023-07-13T02:54:57;1999.90;;;999.90;;
11767;SDS011;5941;57.652;12.514;2023-07-13T02:57:23;1999.90;;;999.90;;
11767;SDS011;5941;57.652;12.514;2023-07-13T02:59:49;1999.90;;;999.90;;
11767;SDS011;5941;57.652;12.514;2023-07-13T03:02:15;1999.90;;;999.90;;
11767;SDS011;5941;57.652;12.514;2023-07-13T03:04:41;1999.90;;;999.90;;
11767;SDS011;5941;57.652;12.514;2023-07-13T03:07:07;1999.90;;;999.90;;
11767;SDS011;5941;57.652;12.514;2023-07-13T03:09:34;1999.90;;;999.90;;
11767;SDS011;5941;57.652;12.514;2023-07-13T03:12:00;1999.90;;;999.90;;
11767;SDS011;5941;57.652;12.514;2023-07-13T03:14:26;1999.90;;;999.90;;
11767;SDS011;5941;57.652;12.514;2023-07-13T03:16:52;1999.90;;;999.90;;
11767;SDS011;5941;57.652;12.514;2023-07-13T03:19:18;1999.90;;;999.90;;
11767;SDS011;5941;57.652;12.514;2023-07-13T03:21:45;1999.90;;;999.90;;
11767;SDS011;5941;57.652;12.514;2023-07-13T03:24:11;1999.90;;;999.90;;
11767;SDS011;5941;57.652;12.514;2023-07-13T03:26:37;1999.90;;;999.90;;
11767;SDS011;5941;57.652;12.514;2023-07-13T03:29:03;1999.90;;;999.90;;
11767;SDS011;5941;57.652;12.514;2023-07-13T03:31:34;1999.90;;;999.90;;
11767;SDS011;5941;57.652;12.514;2023-07-13T03:34:00;1999.90;;;999.90;;
11767;SDS011;5941;57.652;12.514;2023-07-13T03:36:27;1999.90;;;999.90;;
11767;SDS011;5941;57.652;12.514;2023-07-13T03:38:55;1999.90;;;999.90;;
11767;SDS011;5941;57.652;12.514;2023-07-13T03:41:21;1999.90;;;999.90;;
11767;SDS011;5941;57.652;12.514;2023-07-13T03:43:47;1999.90;;;999.90;;
11767;SDS011;5941;57.652;12.514;2023-07-13T03:46:14;1999.90;;;999.90;;
11767;SDS011;5941;57.652;12.514;2023-07-13T03:48:40;1999.90;;;999.90;;
11767;SDS011;5941;57.652;12.514;2023-07-13T03:51:08;1999.90;;;999.90;;
11767;SDS011;5941;57.652;12.514;2023-07-13T03:53:37;1999.90;;;999.90;;
11767;SDS011;5941;57.652;12.514;2023-07-13T03:56:03;1999.90;;;999.90;;
11767;SDS011;5941;57.652;12.514;2023-07-13T03:58:34;1999.90;;;999.90;;
11767;SDS011;5941;57.652;12.514;2023-07-13T04:01:00;1999.90;;;999.90;;
11767;SDS011;5941;57.652;12.514;2023-07-13T04:03:27;1999.90;;;999.90;;
11767;SDS011;5941;57.652;12.514;2023-07-13T04:05:54;1999.90;;;999.90;;
11767;SDS011;5941;57.652;12.514;2023-07-13T04:08:24;1999.90;;;999.90;;
11767;SDS011;5941;57.652;12.514;2023-07-13T04:10:50;1999.90;;;999.90;;
11767;SDS011;5941;57.652;12.514;2023-07-13T04:13:16;1999.90;;;999.90;;
11767;SDS011;5941;57.652;12.514;2023-07-13T04:15:42;1999.90;;;999.90;;
11767;SDS011;5941;57.652;12.514;2023-07-13T04:18:08;1999.90;;;999.90;;
11767;SDS011;5941;57.652;12.514;2023-07-13T04:20:34;1999.90;;;999.90;;
11767;SDS011;5941;57.652;12.514;2023-07-13T04:23:00;1999.90;;;999.90;;
11767;SDS011;5941;57.652;12.514;2023-07-13T04:25:26;1999.90;;;999.90;;
11767;SDS011;5941;57.652;12.514;2023-07-13T04:27:52;1999.90;;;999.90;;
11767;SDS011;5941;57.652;12.514;2023-07-13T04:30:18;1999.90;;;999.90;;
11767;SDS011;5941;57.652;12.514;2023-07-13T04:32:44;1999.90;;;999.90;;
11767;SDS011;5941;57.652;12.514;2023-07-13T04:35:10;1999.90;;;999.90;;
11767;SDS011;5941;57.652;12.514;2023-07-13T04:37:36;1999.90;;;999.90;;
11767;SDS011;5941;57.652;12.514;2023-07-13T04:40:03;1999.90;;;999.90;;
11767;SDS011;5941;57.652;12.514;2023-07-13T04:42:29;1999.90;;;999.90;;
11767;SDS011;5941;57.652;12.514;2023-07-13T04:44:55;1999.90;;;999.90;;
11767;SDS011;5941;57.652;12.514;2023-07-13T04:47:21;1999.90;;;999.90;;
11767;SDS011;5941;57.652;12.514;2023-07-13T04:49:47;1999.90;;;999.90;;
11767;SDS011;5941;57.652;12.514;2023-07-13T04:52:13;1999.90;;;999.90;;
11767;SDS011;5941;57.652;12.514;2023-07-13T04:54:39;1999.90;;;999.90;;
11767;SDS011;5941;57.652;12.514;2023-07-13T04:57:05;1999.90;;;999.90;;
11767;SDS011;5941;57.652;12.514;2023-07-13T04:59:31;1999.90;;;999.90;;
11767;SDS011;5941;57.652;12.514;2023-07-13T05:01:57;1999.90;;;999.90;;
11767;SDS011;5941;57.652;12.514;2023-07-13T05:04:23;1999.90;;;999.90;;
11767;SDS011;5941;57.652;12.514;2023-07-13T05:06:49;1999.90;;;999.90;;
11767;SDS011;5941;57.652;12.514;2023-07-13T05:09:16;1999.90;;;999.90;;
11767;SDS011;5941;57.652;12.514;2023-07-13T05:11:42;1999.90;;;999.90;;
11767;SDS011;5941;57.652;12.514;2023-07-13T05:14:08;1999.90;;;999.90;;
11767;SDS011;5941;57.652;12.514;2023-07-13T05:16:34;1999.90;;;999.90;;
11767;SDS011;5941;57.652;12.514;2023-07-13T05:19:01;1999.90;;;999.90;;
11767;SDS011;5941;57.652;12.514;2023-07-13T05:21:27;1999.90;;;999.90;;
11767;SDS011;5941;57.652;12.514;2023-07-13T05:23:53;1999.90;;;999.90;;
11767;SDS011;5941;57.652;12.514;2023-07-13T05:26:19;1999.90;;;999.90;;
11767;SDS011;5941;57.652;12.514;2023-07-13T05:28:45;1999.90;;;999.90;;
11767;SDS011;5941;57.652;12.514;2023-07-13T05:31:11;1999.90;;;999.90;;
11767;SDS011;5941;57.652;12.514;2023-07-13T05:33:37;1999.90;;;999.90;;
11767;SDS011;5941;57.652;12.514;2023-07-13T05:36:03;1999.90;;;999.90;;
11767;SDS011;5941;57.652;12.514;2023-07-13T05:38:29;1999.90;;;999.90;;
11767;SDS011;5941;57.652;12.514;2023-07-13T05:40:55;1999.90;;;999.90;;
11767;SDS011;5941;57.652;12.514;2023-07-13T05:43:22;1999.90;;;999.90;;
11767;SDS011;5941;57.652;12.514;2023-07-13T05:45:48;1999.90;;;999.90;;
11767;SDS011;5941;57.652;12.514;2023-07-13T05:48:14;1999.90;;;999.90;;
11767;SDS011;5941;57.652;12.514;2023-07-13T05:50:41;1999.90;;;999.90;;
11767;SDS011;5941;57.652;12.514;2023-07-13T05:53:07;1999.90;;;999.90;;
11767;SDS011;5941;57.652;12.514;2023-07-13T05:55:33;1999.90;;;999.90;;
11767;SDS011;5941;57.652;12.514;2023-07-13T05:57:59;1999.90;;;999.90;;
11767;SDS011;5941;57.652;12.514;2023-07-13T06:00:25;1999.90;;;999.90;;
11767;SDS011;5941;57.652;12.514;2023-07-13T06:02:51;1999.90;;;999.90;;
11767;SDS011;5941;57.652;12.514;2023-07-13T06:05:18;1999.90;;;999.90;;
11767;SDS011;5941;57.652;12.514;2023-07-13T06:07:44;1999.90;;;999.90;;
11767;SDS011;5941;57.652;12.514;2023-07-13T06:10:10;1999.90;;;999.90;;
11767;SDS011;5941;57.652;12.514;2023-07-13T06:12:36;1999.90;;;999.90;;
11767;SDS011;5941;57.652;12.514;2023-07-13T06:15:02;1999.90;;;999.90;;
11767;SDS011;5941;57.652;12.514;2023-07-13T06:17:29;1999.90;;;999.90;;
11767;SDS011;5941;57.652;12.514;2023-07-13T06:19:54;1999.90;;;999.90;;
11767;SDS011;5941;57.652;12.514;2023-07-13T06:22:20;1999.90;;;999.90;;
11767;SDS011;5941;57.652;12.514;2023-07-13T06:24:46;1999.90;;;999.90;;
11767;SDS011;5941;57.652;12.514;2023-07-13T06:27:12;1999.90;;;999.90;;
11767;SDS011;5941;57.652;12.514;2023-07-13T06:29:38;1999.90;;;999.90;;
11767;SDS011;5941;57.652;12.514;2023-07-13T06:32:05;1999.90;;;999.90;;
11767;SDS011;5941;57.652;12.514;2023-07-13T06:34:31;1999.90;;;999.90;;
11767;SDS011;5941;57.652;12.514;2023-07-13T06:36:57;1999.90;;;999.90;;
11767;SDS011;5941;57.652;12.514;2023-07-13T06:39:23;1999.90;;;999.90;;
11767;SDS011;5941;57.652;12.514;2023-07-13T06:41:49;1999.90;;;999.90;;
11767;SDS011;5941;57.652;12.514;2023-07-13T06:44:15;1999.90;;;999.90;;
11767;SDS011;5941;57.652;12.514;2023-07-13T06:46:41;1999.90;;;999.90;;
11767;SDS011;5941;57.652;12.514;2023-07-13T06:49:08;1999.90;;;999.90;;
11767;SDS011;5941;57.652;12.514;2023-07-13T06:51:34;1999.90;;;999.90;;
11767;SDS011;5941;57.652;12.514;2023-07-13T06:54:00;1999.90;;;999.90;;
11767;SDS011;5941;57.652;12.514;2023-07-13T06:56:25;1999.90;;;999.90;;
11767;SDS011;5941;57.652;12.514;2023-07-13T06:58:51;1999.90;;;999.90;;
11767;SDS011;5941;57.652;12.514;2023-07-13T07:01:17;1999.90;;;999.90;;
11767;SDS011;5941;57.652;12.514;2023-07-13T07:03:43;1999.90;;;999.90;;
11767;SDS011;5941;57.652;12.514;2023-07-13T07:06:16;1999.90;;;999.90;;
11767;SDS011;5941;57.652;12.514;2023-07-13T07:08:42;1999.90;;;999.90;;
11767;SDS011;5941;57.652;12.514;2023-07-13T07:11:14;1999.90;;;999.90;;
11767;SDS011;5941;57.652;12.514;2023-07-13T07:13:40;1999.90;;;999.90;;
11767;SDS011;5941;57.652;12.514;2023-07-13T07:16:06;1999.90;;;999.90;;
11767;SDS011;5941;57.652;12.514;2023-07-13T07:18:33;1999.90;;;999.90;;
11767;SDS011;5941;57.652;12.514;2023-07-13T07:48:12;1999.90;;;999.90;;
11767;SDS011;5941;57.652;12.514;2023-07-13T07:50:38;1999.90;;;999.90;;
11767;SDS011;5941;57.652;12.514;2023-07-13T07:53:05;1999.90;;;999.90;;
11767;SDS011;5941;57.652;12.514;2023-07-13T07:55:33;1999.90;;;999.90;;
11767;SDS011;5941;57.652;12.514;2023-07-13T07:58:00;1999.90;;;999.90;;
11767;SDS011;5941;57.652;12.514;2023-07-13T08:00:26;1999.90;;;999.90;;
11767;SDS011;5941;57.652;12.514;2023-07-13T08:02:55;1999.90;;;999.90;;
11767;SDS011;5941;57.652;12.514;2023-07-13T08:05:21;1999.90;;;999.90;;
11767;SDS011;5941;57.652;12.514;2023-07-13T08:07:47;1999.90;;;999.90;;
11767;SDS011;5941;57.652;12.514;2023-07-13T08:10:13;1999.90;;;999.90;;
11767;SDS011;5941;57.652;12.514;2023-07-13T08:12:39;1999.90;;;999.90;;
11767;SDS011;5941;57.652;12.514;2023-07-13T08:15:06;928.70;;;865.85;;
11767;SDS011;5941;57.652;12.514;2023-07-13T08:17:32;1999.90;;;999.90;;
11767;SDS011;5941;57.652;12.514;2023-07-13T08:19:58;1999.90;;;999.90;;
11767;SDS011;5941;57.652;12.514;2023-07-13T08:22:24;1999.90;;;999.90;;
11767;SDS011;5941;57.652;12.514;2023-07-13T08:24:50;1999.90;;;999.90;;
11767;SDS011;5941;57.652;12.514;2023-07-13T08:27:20;1999.90;;;999.90;;
11767;SDS011;5941;57.652;12.514;2023-07-13T08:29:47;1999.90;;;999.90;;
11767;SDS011;5941;57.652;12.514;2023-07-13T08:32:13;1999.90;;;999.90;;
11767;SDS011;5941;57.652;12.514;2023-07-13T08:34:39;1999.90;;;999.90;;
11767;SDS011;5941;57.652;12.514;2023-07-13T08:37:05;1999.90;;;999.90;;
11767;SDS011;5941;57.652;12.514;2023-07-13T08:39:32;1999.90;;;999.90;;
11767;SDS011;5941;57.652;12.514;2023-07-13T08:42:00;1999.90;;;999.90;;
11767;SDS011;5941;57.652;12.514;2023-07-13T08:44:33;1999.90;;;999.90;;
11767;SDS011;5941;57.652;12.514;2023-07-13T08:47:01;1999.90;;;999.90;;
11767;SDS011;5941;57.652;12.514;2023-07-13T08:49:27;1999.90;;;999.90;;
11767;SDS011;5941;57.652;12.514;2023-07-13T08:51:56;1999.90;;;999.90;;
11767;SDS011;5941;57.652;12.514;2023-07-13T08:54:27;1999.90;;;999.90;;
11767;SDS011;5941;57.652;12.514;2023-07-13T08:56:53;1999.90;;;999.90;;
11767;SDS011;5941;57.652;12.514;2023-07-13T08:59:21;1999.90;;;999.90;;
11767;SDS011;5941;57.652;12.514;2023-07-13T09:01:53;1999.90;;;999.90;;
11767;SDS011;5941;57.652;12.514;2023-07-13T09:04:22;1999.90;;;999.90;;
11767;SDS011;5941;57.652;12.514;2023-07-13T09:06:55;1999.90;;;999.90;;
11767;SDS011;5941;57.652;12.514;2023-07-13T09:14:26;1999.90;;;999.90;;
11767;SDS011;5941;57.652;12.514;2023-07-13T09:16:57;1999.90;;;999.90;;
11767;SDS011;5941;57.652;12.514;2023-07-13T09:19:29;1999.90;;;999.90;;
11767;SDS011;5941;57.652;12.514;2023-07-13T09:21:57;1999.90;;;999.90;;
11767;SDS011;5941;57.652;12.514;2023-07-13T09:26:50;950.40;;;884.28;;
11767;SDS011;5941;57.652;12.514;2023-07-13T09:29:21;959.00;;;891.35;;
11767;SDS011;5941;57.652;12.514;2023-07-13T09:31:50;970.58;;;902.75;;
11767;SDS011;5941;57.652;12.514;2023-07-13T09:34:18;962.53;;;895.20;;
11767;SDS011;5941;57.652;12.514;2023-07-13T09:36:44;981.28;;;911.25;;
11767;SDS011;5941;57.652;12.514;2023-07-13T09:39:13;1225.55;;;924.95;;
11767;SDS011;5941;57.652;12.514;2023-07-13T09:46:35;1999.90;;;999.90;;
11767;SDS011;5941;57.652;12.514;2023-07-13T09:49:01;1224.97;;;925.00;;
11767;SDS011;5941;57.652;12.514;2023-07-13T09:51:27;966.60;;;899.08;;
11767;SDS011;5941;57.652;12.514;2023-07-13T09:53:54;982.40;;;912.80;;
11767;SDS011;5941;57.652;12.514;2023-07-13T09:56:21;967.78;;;900.13;;
11767;SDS011;5941;57.652;12.514;2023-07-13T09:58:47;963.83;;;897.28;;
11767;SDS011;5941;57.652;12.514;2023-07-13T10:01:13;745.15;;;691.00;;
11767;SDS011;5941;57.652;12.514;2023-07-13T10:03:40;959.10;;;891.42;;
11767;SDS011;5941;57.652;12.514;2023-07-13T10:06:18;963.50;;;895.47;;
11767;SDS011;5941;57.652;12.514;2023-07-13T10:08:44;964.00;;;896.83;;
11767;SDS011;5941;57.652;12.514;2023-07-13T10:11:22;997.58;;;924.90;;
11767;SDS011;5941;57.652;12.514;2023-07-13T10:16:21;959.85;;;892.72;;
11767;SDS011;5941;57.652;12.514;2023-07-13T10:21:53;941.75;;;876.33;;
11767;SDS011;5941;57.652;12.514;2023-07-13T10:24:25;965.88;;;898.13;;
11767;SDS011;5941;57.652;12.514;2023-07-13T10:27:09;948.88;;;884.33;;
11767;SDS011;5941;57.652;12.514;2023-07-13T10:29:38;956.33;;;888.08;;
11767;SDS011;5941;57.652;12.514;2023-07-13T10:32:12;960.70;;;895.38;;
11767;SDS011;5941;57.652;12.514;2023-07-13T10:34:38;978.75;;;908.17;;
11767;SDS011;5941;57.652;12.514;2023-07-13T10:37:05;943.55;;;879.63;;
11767;SDS011;5941;57.652;12.514;2023-07-13T10:39:31;953.78;;;888.80;;
11767;SDS011;5941;57.652;12.514;2023-07-13T10:42:00;977.47;;;907.85;;
11767;SDS011;5941;57.652;12.514;2023-07-13T10:44:30;968.97;;;899.22;;
11767;SDS011;5941;57.652;12.514;2023-07-13T10:46:58;965.83;;;898.13;;
11767;SDS011;5941;57.652;12.514;2023-07-13T10:49:26;960.83;;;894.67;;
11767;SDS011;5941;57.652;12.514;2023-07-13T10:51:53;981.42;;;910.75;;
11767;SDS011;5941;57.652;12.514;2023-07-13T10:54:20;947.05;;;881.38;;
11767;SDS011;5941;57.652;12.514;2023-07-13T10:56:48;929.95;;;868.17;;
11767;SDS011;5941;57.652;12.514;2023-07-13T10:59:17;919.58;;;858.67;;
11767;SDS011;5941;57.652;12.514;2023-07-13T11:04:12;932.17;;;869.58;;
11767;SDS011;5941;57.652;12.514;2023-07-13T11:06:40;950.33;;;883.63;;
11767;SDS011;5941;57.652;12.514;2023-07-13T11:11:47;961.38;;;894.15;;
11767;SDS011;5941;57.652;12.514;2023-07-13T11:14:35;967.63;;;898.72;;
11767;SDS011;5941;57.652;12.514;2023-07-13T11:17:23;964.63;;;896.25;;
11767;SDS011;5941;57.652;12.514;2023-07-13T11:19:47;916.28;;;855.10;;
11767;SDS011;5941;57.652;12.514;2023-07-13T11:22:21;963.85;;;896.30;;
11767;SDS011;5941;57.652;12.514;2023-07-13T11:24:52;932.10;;;870.78;;
11767;SDS011;5941;57.652;12.514;2023-07-13T11:29:48;904.25;;;844.42;;
11767;SDS011;5941;57.652;12.514;2023-07-13T11:32:24;922.15;;;860.38;;
11767;SDS011;5941;57.652;12.514;2023-07-13T11:34:51;922.08;;;860.78;;
11767;SDS011;5941;57.652;12.514;2023-07-13T11:37:19;922.22;;;862.17;;
11767;SDS011;5941;57.652;12.514;2023-07-13T11:39:45;914.53;;;854.70;;
11767;SDS011;5941;57.652;12.514;2023-07-13T11:42:13;936.75;;;874.30;;
11767;SDS011;5941;57.652;12.514;2023-07-13T11:44:46;907.83;;;849.03;;
11767;SDS011;5941;57.652;12.514;2023-07-13T11:47:19;912.25;;;852.50;;
11767;SDS011;5941;57.652;12.514;2023-07-13T11:49:49;905.65;;;846.55;;
11767;SDS011;5941;57.652;12.514;2023-07-13T11:52:18;930.95;;;867.10;;
11767;SDS011;5941;57.652;12.514;2023-07-13T11:54:55;937.88;;;873.75;;
11767;SDS011;5941;57.652;12.514;2023-07-13T11:57:25;905.47;;;845.80;;
11767;SDS011;5941;57.652;12.514;2023-07-13T11:59:52;924.00;;;862.85;;
11767;SDS011;5941;57.652;12.514;2023-07-13T12:02:27;932.63;;;870.47;;
11767;SDS011;5941;57.652;12.514;2023-07-13T12:04:54;924.70;;;863.33;;
11767;SDS011;5941;57.652;12.514;2023-07-13T12:07:20;911.13;;;851.85;;
11767;SDS011;5941;57.652;12.514;2023-07-13T12:09:46;910.05;;;852.20;;
11767;SDS011;5941;57.652;12.514;2023-07-13T12:12:20;938.65;;;874.42;;
11767;SDS011;5941;57.652;12.514;2023-07-13T12:14:46;957.90;;;891.83;;
11767;SDS011;5941;57.652;12.514;2023-07-13T12:17:20;913.40;;;853.55;;
11767;SDS011;5941;57.652;12.514;2023-07-13T12:19:47;906.63;;;847.85;;
11767;SDS011;5941;57.652;12.514;2023-07-13T12:22:14;933.38;;;870.40;;
11767;SDS011;5941;57.652;12.514;2023-07-13T12:24:41;954.80;;;888.70;;
11767;SDS011;5941;57.652;12.514;2023-07-13T12:30:01;960.83;;;893.80;;
11767;SDS011;5941;57.652;12.514;2023-07-13T12:32:27;841.20;;;790.83;;
11767;SDS011;5941;57.652;12.514;2023-07-13T12:34:55;885.33;;;829.13;;
11767;SDS011;5941;57.652;12.514;2023-07-13T12:37:22;938.05;;;874.95;;
11767;SDS011;5941;57.652;12.514;2023-07-13T12:39:48;880.28;;;825.40;;
11767;SDS011;5941;57.652;12.514;2023-07-13T12:42:22;957.90;;;891.28;;
11767;SDS011;5941;57.652;12.514;2023-07-13T12:44:56;878.28;;;823.88;;
11767;SDS011;5941;57.652;12.514;2023-07-13T12:47:22;855.33;;;802.88;;
11767;SDS011;5941;57.652;12.514;2023-07-13T12:49:55;920.75;;;859.10;;
11767;SDS011;5941;57.652;12.514;2023-07-13T12:52:31;908.20;;;848.33;;
11767;SDS011;5941;57.652;12.514;2023-07-13T12:54:59;886.83;;;830.38;;
11767;SDS011;5941;57.652;12.514;2023-07-13T12:57:28;869.60;;;815.40;;
11767;SDS011;5941;57.652;12.514;2023-07-13T12:59:54;878.35;;;822.15;;
11767;SDS011;5941;57.652;12.514;2023-07-13T13:02:30;864.85;;;810.97;;
11767;SDS011;5941;57.652;12.514;2023-07-13T13:04:58;920.65;;;859.10;;
11767;SDS011;5941;57.652;12.514;2023-07-13T13:07:24;940.33;;;876.13;;
11767;SDS011;5941;57.652;12.514;2023-07-13T13:09:51;885.95;;;830.03;;
11767;SDS011;5941;57.652;12.514;2023-07-13T13:12:18;959.25;;;893.38;;
11767;SDS011;5941;57.652;12.514;2023-07-13T13:14:44;930.55;;;868.05;;
11767;SDS011;5941;57.652;12.514;2023-07-13T13:17:15;934.03;;;870.78;;
11767;SDS011;5941;57.652;12.514;2023-07-13T13:19:44;872.00;;;817.22;;
11767;SDS011;5941;57.652;12.514;2023-07-13T13:22:10;900.40;;;842.45;;
11767;SDS011;5941;57.652;12.514;2023-07-13T13:24:36;916.42;;;856.88;;
11767;SDS011;5941;57.652;12.514;2023-07-13T13:27:02;924.55;;;863.33;;
11767;SDS011;5941;57.652;12.514;2023-07-13T13:29:28;907.97;;;848.63;;
11767;SDS011;5941;57.652;12.514;2023-07-13T13:31:57;857.95;;;805.13;;
11767;SDS011;5941;57.652;12.514;2023-07-13T13:34:24;810.75;;;763.30;;
11767;SDS011;5941;57.652;12.514;2023-07-13T13:36:52;848.03;;;796.13;;
11767;SDS011;5941;57.652;12.514;2023-07-13T13:41:48;807.35;;;760.22;;
11767;SDS011;5941;57.652;12.514;2023-07-13T13:44:15;725.90;;;688.17;;
11767;SDS011;5941;57.652;12.514;2023-07-13T13:46:41;642.33;;;611.88;;
11767;SDS011;5941;57.652;12.514;2023-07-13T13:49:12;717.00;;;680.15;;
11767;SDS011;5941;57.652;12.514;2023-07-13T13:51:39;700.05;;;664.78;;
11767;SDS011;5941;57.652;12.514;2023-07-13T13:54:05;811.08;;;763.45;;
11767;SDS011;5941;57.652;12.514;2023-07-13T13:56:35;753.70;;;712.70;;
11767;SDS011;5941;57.652;12.514;2023-07-13T13:59:01;782.55;;;738.13;;
11767;SDS011;5941;57.652;12.514;2023-07-13T14:01:27;785.53;;;741.70;;
11767;SDS011;5941;57.652;12.514;2023-07-13T14:03:53;761.35;;;719.55;;
11767;SDS011;5941;57.652;12.514;2023-07-13T14:06:21;788.28;;;742.75;;
11767;SDS011;5941;57.652;12.514;2023-07-13T14:08:47;684.80;;;650.88;;
11767;SDS011;5941;57.652;12.514;2023-07-13T14:11:14;715.47;;;678.80;;
11767;SDS011;5941;57.652;12.514;2023-07-13T14:13:41;763.92;;;721.17;;
11767;SDS011;5941;57.652;12.514;2023-07-13T14:16:11;749.30;;;709.63;;
11767;SDS011;5941;57.652;12.514;2023-07-13T14:18:38;831.25;;;781.42;;
11767;SDS011;5941;57.652;12.514;2023-07-13T14:21:08;808.60;;;762.08;;
11767;SDS011;5941;57.652;12.514;2023-07-13T14:23:36;774.70;;;732.63;;
11767;SDS011;5941;57.652;12.514;2023-07-13T14:26:03;800.83;;;755.38;;
11767;SDS011;5941;57.652;12.514;2023-07-13T14:28:29;785.38;;;741.20;;
11767;SDS011;5941;57.652;12.514;2023-07-13T14:30:55;772.13;;;729.83;;
11767;SDS011;5941;57.652;12.514;2023-07-13T14:33:21;832.45;;;782.47;;
11767;SDS011;5941;57.652;12.514;2023-07-13T14:35:49;797.78;;;751.67;;
11767;SDS011;5941;57.652;12.514;2023-07-13T14:38:16;752.80;;;712.55;;
11767;SDS011;5941;57.652;12.514;2023-07-13T14:40:43;776.10;;;732.67;;
11767;SDS011;5941;57.652;12.514;2023-07-13T14:43:10;749.97;;;708.75;;
11767;SDS011;5941;57.652;12.514;2023-07-13T14:45:37;794.42;;;749.20;;
11767;SDS011;5941;57.652;12.514;2023-07-13T14:48:08;773.92;;;730.80;;
11767;SDS011;5941;57.652;12.514;2023-07-13T14:50:35;728.60;;;690.10;;